Skip to Main Content
SEARCH:
Location Air RH Dwp Precip Type Wind Speed Wind Gust Direction Pavement Temperature Date/Time
Hatem Bridge US 40 E/B 74 85 69 None - 6 mph N 78 - 78 8/29/2016 8:45:00 AM
I-270 AT I-370 75 78 68 None Calm Calm NW 79 - 82 8/29/2016 8:45:00 AM
I-270 AT MD-109 74 85 70 None Calm Calm SW 82 - 82 8/29/2016 8:45:00 AM
I-495 AT American Legion Bridge 75 92 73 None Calm 4 mph NW 84 - 85 8/29/2016 8:45:00 AM
I-68 AT MD-219 69 87 65 None Calm 5 mph E 73 - 76 8/29/2016 8:45:00 AM
I-68 AT Savage Mt 70 75 62 None 6 mph 9 mph N 78 - 79 8/29/2016 8:45:00 AM
I-68 AT Sideling Hill 74 79 67 None Calm 5 mph SE 84 - 85 8/29/2016 8:45:00 AM
I-68 AT WV Line 64 100 64 None Calm Calm SW 69 - 72 8/29/2016 8:45:00 AM
I-695 AT I-83 76 78 69 None 4 mph 9 mph N 83 - 85 8/29/2016 8:45:00 AM
I-70 AT Fred-Wash Co. 73 88 69 None Calm Calm NW 81 - 81 8/29/2016 8:45:00 AM
I-70 AT I-695 75 78 68 None Calm 5 mph N 150 - 86 8/29/2016 8:45:00 AM
I-70 AT I-81 75 81 69 None Calm 4 mph NW 87 - 87 8/29/2016 8:45:00 AM
I-70 AT MD-27 75 79 68 None Calm 4 mph N 84 - 85 8/29/2016 8:45:00 AM
I-70 AT MD-32 73 84 68 None 4 mph 6 mph SW 80 - 80 8/29/2016 8:45:00 AM
I-83 AT MD-137 75 85 70 None Calm Calm S 84 - 84 8/29/2016 8:45:00 AM
I-895 AT I-95 - - - No Data Available - - No Data Available -
I-95 AT I-695 NE 76 73 67 None Calm 5 mph NW 83 - 88 8/29/2016 8:45:00 AM
I-95 AT Patuxent River 77 81 71 None Calm 8 mph SE 84 - 84 8/29/2016 8:45:00 AM
I-95 AT Tydings Bridge 77 74 69 None Calm 4 mph NW 81 - 85 8/29/2016 8:45:00 AM
I-95/495 AT I-295 86 59 70 None Calm 4 mph SW 87 - 93 8/29/2016 8:45:00 AM
I-97 AT MD-100 79 70 69 None 4 mph 8 mph NW 83 - 85 8/29/2016 8:45:00 AM
I-97 AT MD-32 75 78 68 None 11 mph 15 mph N 77 - 79 8/29/2016 8:45:00 AM
MD 231 at Patuxent River 74 86 70 None Calm 5 mph N 81 - 85 8/29/2016 8:45:00 AM
MD-135 AT Salt Dome 67 91 65 None Calm Calm N 77 - 77 8/29/2016 8:45:00 AM
MD-140 AT MD-97 75 79 68 None Calm 4 mph SW 84 - 84 8/29/2016 8:45:00 AM
MD-200 EB AT Bonifant Rd 75 82 69 None Calm 5 mph E 84 - 85 8/29/2016 8:45:00 AM
MD-200 WB AT Muncaster Mill Rd 73 85 68 None Calm 6 mph E 80 - 82 8/29/2016 8:45:00 AM
MD-213 AT Sassafras River 76 90 73 None Calm 5 mph SW 84 - 84 8/29/2016 8:45:00 AM
MD-24 AT Rock St Park 69 100 69 None Calm Calm N 71 - 71 8/29/2016 8:45:00 AM
MD-30 AT PA Line 73 83 68 None Calm Calm NW 16 - 16 8/29/2016 8:45:00 AM
MD-301 AT MD-305 74 84 69 None Calm Calm NW 82 - 87 8/29/2016 8:45:00 AM
MD-33 AT Knapps Narrows Drawbridge 79 73 70 None 8 mph 12 mph NW 90 - 90 8/29/2016 8:41:00 AM
MD-344 at MD-224 74 87 70 None Calm Calm NW 80 - 80 8/29/2016 8:45:00 AM
MD-4 AT Patuxent River 77 85 72 None - - No Data Available 81 - 84 8/29/2016 8:45:00 AM
MD-404 AT Choptank River 74 85 70 None Calm 4 mph SE 80 - 83 8/29/2016 8:45:00 AM
MD-43 AT MD-150 77 78 70 None Calm 6 mph W 85 - 86 8/29/2016 8:45:00 AM
MD-51 AT Oldtown Salt Dome 73 81 67 None Calm 4 mph SE 83 - 83 8/29/2016 8:45:00 AM
US-1 AT Baltimore / Harford Co. Line 70 93 68 None Calm 4 mph N 72 - 74 8/29/2016 8:45:00 AM
US-1 AT Conowingo Dam 73 91 70 None Calm 6 mph SW 77 - 77 8/29/2016 8:45:00 AM
US-13 AT US-113 71 92 68 None 4 mph 6 mph N 84 - 84 8/29/2016 8:45:00 AM
US-13 AT US-50 71 87 67 None Calm 6 mph N 76 - 76 8/29/2016 8:45:00 AM
US-15 AT MD-140 74 76 66 None Calm Calm W 80 - 80 8/29/2016 8:45:00 AM
US-301 AT MD-5 75 87 71 None Calm 9 mph NW 77 - 84 8/29/2016 8:45:00 AM
US-301 AT Potomac 84 70 73 None Calm 8 mph N 80 - 85 8/29/2016 8:45:00 AM
US-340 AT MD-180 73 79 66 None Calm Calm E 82 - 84 8/29/2016 8:45:00 AM
US-50 AT Choptank 75 91 72 None Calm Calm E 77 - 80 8/29/2016 8:45:00 AM
US-50 AT I-95 - - - No Data Available - - No Data Available -
US-50 AT MD-2 76 81 70 None Calm 5 mph NW 83 - 83 8/29/2016 8:45:00 AM
US-50 AT MD-331 74 83 69 None Calm 5 mph N 79 - 82 8/29/2016 8:45:00 AM
US-50 AT OC Drawbridge 75 88 71 None 6 mph 8 mph N 83 - 83 8/29/2016 8:45:00 AM
US-50 AT Table Rock Rd 69 84 64 None Calm Calm W 74 - 74 8/29/2016 8:45:00 AM
US-50 Kent Narrow Bridge 77 78 70 None 5 mph 10 mph NW 82 - 85 8/29/2016 8:45:00 AM
WPL Pier 31 - - - None - - No Data Available 82 - 82 8/29/2016 8:45:00 AM
Location Air RH Dwp Precip Type Wind Speed Wind Gust Direction Pavement Temperature Date/Time